sensor_id;sensor_type;location;lat;lon;timestamp;P1;durP1;ratioP1;P2;durP2;ratioP2
4895;SDS011;2463;49.948;8.472;2023-05-07T00:01:25;88.43;;;4.13;;
4895;SDS011;2463;49.948;8.472;2023-05-07T00:03:52;90.70;;;4.75;;
4895;SDS011;2463;49.948;8.472;2023-05-07T00:06:19;91.00;;;4.40;;
4895;SDS011;2463;49.948;8.472;2023-05-07T00:08:46;89.78;;;5.20;;
4895;SDS011;2463;49.948;8.472;2023-05-07T00:11:12;87.90;;;4.10;;
4895;SDS011;2463;49.948;8.472;2023-05-07T00:13:39;88.93;;;4.80;;
4895;SDS011;2463;49.948;8.472;2023-05-07T00:16:06;90.10;;;5.10;;
4895;SDS011;2463;49.948;8.472;2023-05-07T00:18:32;88.38;;;4.78;;
4895;SDS011;2463;49.948;8.472;2023-05-07T00:20:59;89.47;;;4.80;;
4895;SDS011;2463;49.948;8.472;2023-05-07T00:23:26;87.85;;;4.50;;
4895;SDS011;2463;49.948;8.472;2023-05-07T00:25:52;89.15;;;4.68;;
4895;SDS011;2463;49.948;8.472;2023-05-07T00:28:26;89.43;;;4.70;;
4895;SDS011;2463;49.948;8.472;2023-05-07T00:30:52;89.03;;;4.90;;
4895;SDS011;2463;49.948;8.472;2023-05-07T00:33:19;88.55;;;5.10;;
4895;SDS011;2463;49.948;8.472;2023-05-07T00:35:46;90.57;;;5.18;;
4895;SDS011;2463;49.948;8.472;2023-05-07T00:38:13;89.00;;;5.07;;
4895;SDS011;2463;49.948;8.472;2023-05-07T00:40:40;88.57;;;4.60;;
4895;SDS011;2463;49.948;8.472;2023-05-07T00:43:07;88.07;;;4.78;;
4895;SDS011;2463;49.948;8.472;2023-05-07T00:45:35;88.65;;;5.00;;
4895;SDS011;2463;49.948;8.472;2023-05-07T00:48:01;89.13;;;5.13;;
4895;SDS011;2463;49.948;8.472;2023-05-07T00:50:29;89.82;;;5.22;;
4895;SDS011;2463;49.948;8.472;2023-05-07T00:52:56;88.47;;;4.72;;
4895;SDS011;2463;49.948;8.472;2023-05-07T00:55:23;88.50;;;4.85;;
4895;SDS011;2463;49.948;8.472;2023-05-07T00:57:50;88.75;;;4.78;;
4895;SDS011;2463;49.948;8.472;2023-05-07T01:00:17;89.72;;;5.03;;
4895;SDS011;2463;49.948;8.472;2023-05-07T01:02:45;88.68;;;4.85;;
4895;SDS011;2463;49.948;8.472;2023-05-07T01:05:14;89.13;;;4.88;;
4895;SDS011;2463;49.948;8.472;2023-05-07T01:07:43;90.93;;;5.50;;
4895;SDS011;2463;49.948;8.472;2023-05-07T01:10:10;89.75;;;4.85;;
4895;SDS011;2463;49.948;8.472;2023-05-07T01:12:38;87.90;;;4.50;;
4895;SDS011;2463;49.948;8.472;2023-05-07T01:15:07;90.15;;;4.85;;
4895;SDS011;2463;49.948;8.472;2023-05-07T01:17:39;93.25;;;5.20;;
4895;SDS011;2463;49.948;8.472;2023-05-07T01:20:07;91.25;;;4.63;;
4895;SDS011;2463;49.948;8.472;2023-05-07T01:22:37;88.65;;;4.68;;
4895;SDS011;2463;49.948;8.472;2023-05-07T01:25:04;88.63;;;4.80;;
4895;SDS011;2463;49.948;8.472;2023-05-07T01:27:33;89.68;;;4.50;;
4895;SDS011;2463;49.948;8.472;2023-05-07T01:30:01;89.10;;;4.53;;
4895;SDS011;2463;49.948;8.472;2023-05-07T01:35:11;94.43;;;4.80;;
4895;SDS011;2463;49.948;8.472;2023-05-07T01:37:39;91.78;;;4.80;;
4895;SDS011;2463;49.948;8.472;2023-05-07T01:40:07;89.55;;;4.90;;
4895;SDS011;2463;49.948;8.472;2023-05-07T01:42:35;88.78;;;4.40;;
4895;SDS011;2463;49.948;8.472;2023-05-07T01:45:01;89.70;;;4.60;;
4895;SDS011;2463;49.948;8.472;2023-05-07T01:47:28;95.93;;;5.15;;
4895;SDS011;2463;49.948;8.472;2023-05-07T01:49:56;89.28;;;4.70;;
4895;SDS011;2463;49.948;8.472;2023-05-07T01:52:24;87.72;;;4.70;;
4895;SDS011;2463;49.948;8.472;2023-05-07T01:54:51;90.45;;;5.03;;
4895;SDS011;2463;49.948;8.472;2023-05-07T01:57:17;88.97;;;4.90;;
4895;SDS011;2463;49.948;8.472;2023-05-07T01:59:44;88.93;;;5.00;;
4895;SDS011;2463;49.948;8.472;2023-05-07T02:02:11;88.40;;;4.78;;
4895;SDS011;2463;49.948;8.472;2023-05-07T02:04:38;88.63;;;4.50;;
4895;SDS011;2463;49.948;8.472;2023-05-07T02:07:04;87.95;;;4.50;;
4895;SDS011;2463;49.948;8.472;2023-05-07T02:09:31;94.47;;;4.70;;
4895;SDS011;2463;49.948;8.472;2023-05-07T02:11:58;90.60;;;4.55;;
4895;SDS011;2463;49.948;8.472;2023-05-07T02:14:24;88.75;;;4.85;;
4895;SDS011;2463;49.948;8.472;2023-05-07T02:16:52;90.00;;;5.13;;
4895;SDS011;2463;49.948;8.472;2023-05-07T02:19:18;91.22;;;5.40;;
4895;SDS011;2463;49.948;8.472;2023-05-07T02:21:47;88.47;;;4.55;;
4895;SDS011;2463;49.948;8.472;2023-05-07T02:24:14;90.55;;;4.80;;
4895;SDS011;2463;49.948;8.472;2023-05-07T02:26:41;89.78;;;4.82;;
4895;SDS011;2463;49.948;8.472;2023-05-07T02:29:07;89.05;;;4.80;;
4895;SDS011;2463;49.948;8.472;2023-05-07T02:31:34;89.35;;;5.00;;
4895;SDS011;2463;49.948;8.472;2023-05-07T02:34:01;89.55;;;5.00;;
4895;SDS011;2463;49.948;8.472;2023-05-07T02:36:27;89.80;;;5.45;;
4895;SDS011;2463;49.948;8.472;2023-05-07T02:38:54;91.35;;;5.40;;
4895;SDS011;2463;49.948;8.472;2023-05-07T02:41:21;88.25;;;4.50;;
4895;SDS011;2463;49.948;8.472;2023-05-07T02:43:48;90.28;;;4.90;;
4895;SDS011;2463;49.948;8.472;2023-05-07T02:46:14;89.15;;;4.90;;
4895;SDS011;2463;49.948;8.472;2023-05-07T02:48:42;90.10;;;4.90;;
4895;SDS011;2463;49.948;8.472;2023-05-07T02:51:09;89.90;;;5.25;;
4895;SDS011;2463;49.948;8.472;2023-05-07T02:53:35;89.88;;;5.18;;
4895;SDS011;2463;49.948;8.472;2023-05-07T02:56:02;88.63;;;5.20;;
4895;SDS011;2463;49.948;8.472;2023-05-07T02:58:29;89.68;;;4.60;;
4895;SDS011;2463;49.948;8.472;2023-05-07T03:00:56;90.57;;;5.13;;
4895;SDS011;2463;49.948;8.472;2023-05-07T03:03:23;90.72;;;5.25;;
4895;SDS011;2463;49.948;8.472;2023-05-07T03:05:50;89.10;;;4.80;;
4895;SDS011;2463;49.948;8.472;2023-05-07T03:08:16;89.93;;;5.38;;
4895;SDS011;2463;49.948;8.472;2023-05-07T03:10:43;92.70;;;5.00;;
4895;SDS011;2463;49.948;8.472;2023-05-07T03:13:10;90.30;;;5.28;;
4895;SDS011;2463;49.948;8.472;2023-05-07T03:15:36;90.68;;;5.15;;
4895;SDS011;2463;49.948;8.472;2023-05-07T03:18:03;89.80;;;4.88;;
4895;SDS011;2463;49.948;8.472;2023-05-07T03:20:30;89.22;;;4.90;;
4895;SDS011;2463;49.948;8.472;2023-05-07T03:22:57;90.20;;;5.32;;
4895;SDS011;2463;49.948;8.472;2023-05-07T03:25:24;90.70;;;5.47;;
4895;SDS011;2463;49.948;8.472;2023-05-07T03:27:51;89.05;;;5.10;;
4895;SDS011;2463;49.948;8.472;2023-05-07T03:30:17;89.13;;;5.10;;
4895;SDS011;2463;49.948;8.472;2023-05-07T03:32:45;88.65;;;4.97;;
4895;SDS011;2463;49.948;8.472;2023-05-07T03:35:11;92.20;;;5.28;;
4895;SDS011;2463;49.948;8.472;2023-05-07T03:37:38;88.35;;;4.70;;
4895;SDS011;2463;49.948;8.472;2023-05-07T03:40:05;89.03;;;4.78;;
4895;SDS011;2463;49.948;8.472;2023-05-07T03:42:33;91.18;;;5.50;;
4895;SDS011;2463;49.948;8.472;2023-05-07T03:45:00;89.50;;;4.82;;
4895;SDS011;2463;49.948;8.472;2023-05-07T03:47:27;88.47;;;4.97;;
4895;SDS011;2463;49.948;8.472;2023-05-07T03:49:53;89.15;;;4.90;;
4895;SDS011;2463;49.948;8.472;2023-05-07T03:52:21;88.35;;;4.80;;
4895;SDS011;2463;49.948;8.472;2023-05-07T03:54:52;89.05;;;4.80;;
4895;SDS011;2463;49.948;8.472;2023-05-07T03:57:19;90.05;;;5.22;;
4895;SDS011;2463;49.948;8.472;2023-05-07T03:59:46;88.53;;;4.80;;
4895;SDS011;2463;49.948;8.472;2023-05-07T04:02:13;90.25;;;5.10;;
4895;SDS011;2463;49.948;8.472;2023-05-07T04:04:40;88.85;;;5.10;;
4895;SDS011;2463;49.948;8.472;2023-05-07T04:07:07;88.70;;;4.70;;
4895;SDS011;2463;49.948;8.472;2023-05-07T04:09:33;89.68;;;5.00;;
4895;SDS011;2463;49.948;8.472;2023-05-07T04:12:00;88.75;;;4.90;;
4895;SDS011;2463;49.948;8.472;2023-05-07T04:14:27;93.43;;;5.60;;
4895;SDS011;2463;49.948;8.472;2023-05-07T04:16:54;89.65;;;5.07;;
4895;SDS011;2463;49.948;8.472;2023-05-07T04:19:20;89.75;;;5.10;;
4895;SDS011;2463;49.948;8.472;2023-05-07T04:21:49;89.40;;;5.13;;
4895;SDS011;2463;49.948;8.472;2023-05-07T04:24:16;89.50;;;5.25;;
4895;SDS011;2463;49.948;8.472;2023-05-07T04:26:43;90.63;;;5.10;;
4895;SDS011;2463;49.948;8.472;2023-05-07T04:29:09;91.32;;;5.07;;
4895;SDS011;2463;49.948;8.472;2023-05-07T04:31:36;88.10;;;4.80;;
4895;SDS011;2463;49.948;8.472;2023-05-07T04:34:03;90.63;;;5.65;;
4895;SDS011;2463;49.948;8.472;2023-05-07T04:36:30;90.20;;;5.10;;
4895;SDS011;2463;49.948;8.472;2023-05-07T04:38:56;89.32;;;4.90;;
4895;SDS011;2463;49.948;8.472;2023-05-07T04:41:23;90.93;;;5.22;;
4895;SDS011;2463;49.948;8.472;2023-05-07T04:43:50;88.72;;;5.22;;
4895;SDS011;2463;49.948;8.472;2023-05-07T04:46:17;88.82;;;5.15;;
4895;SDS011;2463;49.948;8.472;2023-05-07T04:48:44;88.85;;;5.30;;
4895;SDS011;2463;49.948;8.472;2023-05-07T04:51:10;88.93;;;5.30;;
4895;SDS011;2463;49.948;8.472;2023-05-07T04:53:37;88.53;;;5.10;;
4895;SDS011;2463;49.948;8.472;2023-05-07T04:56:04;89.18;;;4.75;;
4895;SDS011;2463;49.948;8.472;2023-05-07T04:58:31;89.25;;;5.03;;
4895;SDS011;2463;49.948;8.472;2023-05-07T05:00:58;89.57;;;4.53;;
4895;SDS011;2463;49.948;8.472;2023-05-07T05:03:26;88.68;;;5.30;;
4895;SDS011;2463;49.948;8.472;2023-05-07T05:05:53;89.10;;;5.20;;
4895;SDS011;2463;49.948;8.472;2023-05-07T05:08:20;89.25;;;5.28;;
4895;SDS011;2463;49.948;8.472;2023-05-07T05:10:46;90.00;;;4.82;;
4895;SDS011;2463;49.948;8.472;2023-05-07T05:13:15;88.47;;;4.88;;
4895;SDS011;2463;49.948;8.472;2023-05-07T05:15:42;89.10;;;5.18;;
4895;SDS011;2463;49.948;8.472;2023-05-07T05:18:09;89.45;;;5.00;;
4895;SDS011;2463;49.948;8.472;2023-05-07T05:20:36;88.13;;;4.70;;
4895;SDS011;2463;49.948;8.472;2023-05-07T05:23:03;88.90;;;5.20;;
4895;SDS011;2463;49.948;8.472;2023-05-07T05:25:29;87.53;;;4.72;;
4895;SDS011;2463;49.948;8.472;2023-05-07T05:27:56;88.38;;;5.07;;
4895;SDS011;2463;49.948;8.472;2023-05-07T05:30:23;88.88;;;5.43;;
4895;SDS011;2463;49.948;8.472;2023-05-07T05:32:49;91.68;;;4.93;;
4895;SDS011;2463;49.948;8.472;2023-05-07T05:35:16;88.35;;;4.85;;
4895;SDS011;2463;49.948;8.472;2023-05-07T05:37:43;88.43;;;5.18;;
4895;SDS011;2463;49.948;8.472;2023-05-07T05:40:10;92.70;;;5.30;;
4895;SDS011;2463;49.948;8.472;2023-05-07T05:42:37;88.13;;;4.90;;
4895;SDS011;2463;49.948;8.472;2023-05-07T05:45:04;89.15;;;5.00;;
4895;SDS011;2463;49.948;8.472;2023-05-07T05:47:31;90.22;;;4.60;;
4895;SDS011;2463;49.948;8.472;2023-05-07T05:49:58;87.65;;;4.88;;
4895;SDS011;2463;49.948;8.472;2023-05-07T05:52:24;87.13;;;4.60;;
4895;SDS011;2463;49.948;8.472;2023-05-07T05:54:51;88.35;;;4.82;;
4895;SDS011;2463;49.948;8.472;2023-05-07T05:57:18;87.72;;;4.65;;
4895;SDS011;2463;49.948;8.472;2023-05-07T05:59:45;87.55;;;4.50;;
4895;SDS011;2463;49.948;8.472;2023-05-07T06:02:13;87.40;;;4.60;;
4895;SDS011;2463;49.948;8.472;2023-05-07T06:04:40;90.32;;;4.88;;
4895;SDS011;2463;49.948;8.472;2023-05-07T06:07:07;88.75;;;4.80;;
4895;SDS011;2463;49.948;8.472;2023-05-07T06:09:33;88.68;;;5.07;;
4895;SDS011;2463;49.948;8.472;2023-05-07T06:12:00;88.10;;;4.95;;
4895;SDS011;2463;49.948;8.472;2023-05-07T06:14:27;90.30;;;5.15;;
4895;SDS011;2463;49.948;8.472;2023-05-07T06:16:53;88.25;;;4.68;;
4895;SDS011;2463;49.948;8.472;2023-05-07T06:19:20;92.53;;;4.85;;
4895;SDS011;2463;49.948;8.472;2023-05-07T06:21:49;89.53;;;4.90;;
4895;SDS011;2463;49.948;8.472;2023-05-07T06:24:16;88.22;;;4.75;;
4895;SDS011;2463;49.948;8.472;2023-05-07T06:26:43;87.03;;;4.90;;
4895;SDS011;2463;49.948;8.472;2023-05-07T06:29:09;89.60;;;4.88;;
4895;SDS011;2463;49.948;8.472;2023-05-07T06:31:36;87.18;;;4.68;;
4895;SDS011;2463;49.948;8.472;2023-05-07T06:34:03;88.22;;;4.82;;
4895;SDS011;2463;49.948;8.472;2023-05-07T06:36:30;87.50;;;4.70;;
4895;SDS011;2463;49.948;8.472;2023-05-07T06:38:56;87.22;;;5.15;;
4895;SDS011;2463;49.948;8.472;2023-05-07T06:41:23;87.93;;;4.80;;
4895;SDS011;2463;49.948;8.472;2023-05-07T06:43:50;87.70;;;5.78;;
4895;SDS011;2463;49.948;8.472;2023-05-07T06:46:16;87.18;;;5.05;;
4895;SDS011;2463;49.948;8.472;2023-05-07T06:48:43;88.40;;;4.90;;
4895;SDS011;2463;49.948;8.472;2023-05-07T06:51:10;87.53;;;4.90;;
4895;SDS011;2463;49.948;8.472;2023-05-07T06:53:37;87.63;;;4.90;;
4895;SDS011;2463;49.948;8.472;2023-05-07T06:56:03;87.32;;;4.80;;
4895;SDS011;2463;49.948;8.472;2023-05-07T06:58:30;88.00;;;4.70;;
4895;SDS011;2463;49.948;8.472;2023-05-07T07:00:57;87.77;;;5.00;;
4895;SDS011;2463;49.948;8.472;2023-05-07T07:03:24;87.03;;;4.70;;
4895;SDS011;2463;49.948;8.472;2023-05-07T07:05:51;87.50;;;4.80;;
4895;SDS011;2463;49.948;8.472;2023-05-07T07:08:19;86.72;;;4.80;;
4895;SDS011;2463;49.948;8.472;2023-05-07T07:10:47;86.63;;;4.70;;
4895;SDS011;2463;49.948;8.472;2023-05-07T07:13:14;86.32;;;4.60;;
4895;SDS011;2463;49.948;8.472;2023-05-07T07:15:41;88.28;;;4.90;;
4895;SDS011;2463;49.948;8.472;2023-05-07T07:18:07;86.82;;;4.70;;
4895;SDS011;2463;49.948;8.472;2023-05-07T07:20:34;86.95;;;4.60;;
4895;SDS011;2463;49.948;8.472;2023-05-07T07:23:01;87.57;;;5.40;;
4895;SDS011;2463;49.948;8.472;2023-05-07T07:25:27;86.40;;;4.63;;
4895;SDS011;2463;49.948;8.472;2023-05-07T07:27:54;87.55;;;4.45;;
4895;SDS011;2463;49.948;8.472;2023-05-07T07:30:21;87.40;;;4.80;;
4895;SDS011;2463;49.948;8.472;2023-05-07T07:32:47;86.93;;;4.85;;
4895;SDS011;2463;49.948;8.472;2023-05-07T07:35:14;87.47;;;4.53;;
4895;SDS011;2463;49.948;8.472;2023-05-07T07:37:41;88.95;;;4.78;;
4895;SDS011;2463;49.948;8.472;2023-05-07T07:40:07;86.87;;;5.17;;
4895;SDS011;2463;49.948;8.472;2023-05-07T07:42:35;87.38;;;5.03;;
4895;SDS011;2463;49.948;8.472;2023-05-07T07:45:02;93.07;;;5.50;;
4895;SDS011;2463;49.948;8.472;2023-05-07T07:47:29;88.38;;;4.95;;
4895;SDS011;2463;49.948;8.472;2023-05-07T07:49:56;91.33;;;5.00;;
4895;SDS011;2463;49.948;8.472;2023-05-07T07:52:23;89.30;;;4.80;;
4895;SDS011;2463;49.948;8.472;2023-05-07T07:54:49;86.90;;;5.53;;
4895;SDS011;2463;49.948;8.472;2023-05-07T07:57:16;86.17;;;5.00;;
4895;SDS011;2463;49.948;8.472;2023-05-07T07:59:43;86.75;;;4.82;;
4895;SDS011;2463;49.948;8.472;2023-05-07T08:02:09;87.78;;;5.15;;
4895;SDS011;2463;49.948;8.472;2023-05-07T08:04:36;86.33;;;4.60;;
4895;SDS011;2463;49.948;8.472;2023-05-07T08:07:04;86.85;;;4.40;;
4895;SDS011;2463;49.948;8.472;2023-05-07T08:09:30;87.67;;;5.20;;
4895;SDS011;2463;49.948;8.472;2023-05-07T08:11:57;87.53;;;5.15;;
4895;SDS011;2463;49.948;8.472;2023-05-07T08:14:24;85.70;;;4.80;;
4895;SDS011;2463;49.948;8.472;2023-05-07T08:16:50;86.15;;;4.60;;
4895;SDS011;2463;49.948;8.472;2023-05-07T08:19:17;86.43;;;4.80;;
4895;SDS011;2463;49.948;8.472;2023-05-07T08:21:44;86.20;;;4.83;;
4895;SDS011;2463;49.948;8.472;2023-05-07T08:24:11;86.70;;;5.07;;
4895;SDS011;2463;49.948;8.472;2023-05-07T08:26:37;86.45;;;4.85;;
4895;SDS011;2463;49.948;8.472;2023-05-07T08:29:05;85.40;;;4.60;;
4895;SDS011;2463;49.948;8.472;2023-05-07T08:31:32;89.77;;;5.30;;
4895;SDS011;2463;49.948;8.472;2023-05-07T08:33:59;87.90;;;5.00;;
4895;SDS011;2463;49.948;8.472;2023-05-07T08:36:26;88.10;;;5.20;;
4895;SDS011;2463;49.948;8.472;2023-05-07T08:38:52;86.57;;;5.00;;
4895;SDS011;2463;49.948;8.472;2023-05-07T08:41:19;86.47;;;5.30;;
4895;SDS011;2463;49.948;8.472;2023-05-07T08:43:47;85.07;;;4.90;;
4895;SDS011;2463;49.948;8.472;2023-05-07T08:46:17;91.53;;;5.10;;
4895;SDS011;2463;49.948;8.472;2023-05-07T08:48:48;90.80;;;4.90;;
4895;SDS011;2463;49.948;8.472;2023-05-07T08:51:17;86.00;;;4.90;;
4895;SDS011;2463;49.948;8.472;2023-05-07T08:53:45;85.27;;;4.93;;
4895;SDS011;2463;49.948;8.472;2023-05-07T08:56:14;84.90;;;4.90;;
4895;SDS011;2463;49.948;8.472;2023-05-07T08:58:42;86.00;;;4.70;;
4895;SDS011;2463;49.948;8.472;2023-05-07T09:01:11;86.57;;;5.50;;
4895;SDS011;2463;49.948;8.472;2023-05-07T09:03:40;85.37;;;4.67;;
4895;SDS011;2463;49.948;8.472;2023-05-07T09:06:07;84.87;;;4.93;;
4895;SDS011;2463;49.948;8.472;2023-05-07T09:08:34;85.60;;;4.70;;
4895;SDS011;2463;49.948;8.472;2023-05-07T09:11:02;85.17;;;5.10;;
4895;SDS011;2463;49.948;8.472;2023-05-07T09:13:29;84.40;;;5.13;;
4895;SDS011;2463;49.948;8.472;2023-05-07T09:15:56;85.70;;;5.10;;
4895;SDS011;2463;49.948;8.472;2023-05-07T09:18:25;84.97;;;5.63;;
4895;SDS011;2463;49.948;8.472;2023-05-07T09:20:52;84.17;;;4.43;;
4895;SDS011;2463;49.948;8.472;2023-05-07T09:23:19;92.60;;;4.87;;
4895;SDS011;2463;49.948;8.472;2023-05-07T09:25:47;84.50;;;4.70;;
4895;SDS011;2463;49.948;8.472;2023-05-07T09:28:13;84.90;;;4.70;;
4895;SDS011;2463;49.948;8.472;2023-05-07T09:30:40;84.60;;;4.83;;
4895;SDS011;2463;49.948;8.472;2023-05-07T09:33:07;85.17;;;4.90;;
4895;SDS011;2463;49.948;8.472;2023-05-07T09:35:33;84.67;;;5.10;;
4895;SDS011;2463;49.948;8.472;2023-05-07T09:38:00;84.83;;;4.93;;
4895;SDS011;2463;49.948;8.472;2023-05-07T09:40:30;83.57;;;4.40;;
4895;SDS011;2463;49.948;8.472;2023-05-07T09:43:01;84.90;;;4.73;;
4895;SDS011;2463;49.948;8.472;2023-05-07T09:45:36;82.10;;;4.40;;
4895;SDS011;2463;49.948;8.472;2023-05-07T09:48:04;85.50;;;4.57;;
4895;SDS011;2463;49.948;8.472;2023-05-07T09:50:35;83.87;;;4.60;;
4895;SDS011;2463;49.948;8.472;2023-05-07T09:53:03;81.90;;;4.10;;
4895;SDS011;2463;49.948;8.472;2023-05-07T09:55:31;83.37;;;4.83;;
4895;SDS011;2463;49.948;8.472;2023-05-07T09:57:57;83.33;;;4.70;;
4895;SDS011;2463;49.948;8.472;2023-05-07T10:00:25;83.53;;;4.43;;
4895;SDS011;2463;49.948;8.472;2023-05-07T10:02:53;83.27;;;4.77;;
4895;SDS011;2463;49.948;8.472;2023-05-07T10:05:23;82.10;;;4.43;;
4895;SDS011;2463;49.948;8.472;2023-05-07T10:07:51;84.47;;;4.80;;
4895;SDS011;2463;49.948;8.472;2023-05-07T10:10:20;84.50;;;4.70;;
4895;SDS011;2463;49.948;8.472;2023-05-07T10:12:48;81.60;;;4.17;;
4895;SDS011;2463;49.948;8.472;2023-05-07T10:15:15;81.77;;;3.97;;
4895;SDS011;2463;49.948;8.472;2023-05-07T10:17:43;82.30;;;4.30;;
4895;SDS011;2463;49.948;8.472;2023-05-07T10:20:11;82.50;;;4.67;;
4895;SDS011;2463;49.948;8.472;2023-05-07T10:22:38;81.47;;;4.33;;
4895;SDS011;2463;49.948;8.472;2023-05-07T10:25:32;82.40;;;4.10;;
4895;SDS011;2463;49.948;8.472;2023-05-07T10:28:03;81.13;;;4.27;;
4895;SDS011;2463;49.948;8.472;2023-05-07T10:33:33;81.67;;;4.17;;
4895;SDS011;2463;49.948;8.472;2023-05-07T10:36:02;80.67;;;4.10;;
4895;SDS011;2463;49.948;8.472;2023-05-07T10:38:30;80.13;;;4.07;;
4895;SDS011;2463;49.948;8.472;2023-05-07T10:40:57;80.00;;;3.80;;
4895;SDS011;2463;49.948;8.472;2023-05-07T10:43:24;80.33;;;3.70;;
4895;SDS011;2463;49.948;8.472;2023-05-07T10:51:32;81.17;;;3.90;;
4895;SDS011;2463;49.948;8.472;2023-05-07T10:56:39;79.57;;;3.57;;
4895;SDS011;2463;49.948;8.472;2023-05-07T11:01:54;81.47;;;4.33;;
4895;SDS011;2463;49.948;8.472;2023-05-07T11:04:25;79.87;;;3.20;;
4895;SDS011;2463;49.948;8.472;2023-05-07T11:17:33;80.10;;;3.47;;
4895;SDS011;2463;49.948;8.472;2023-05-07T11:20:02;78.93;;;3.40;;
4895;SDS011;2463;49.948;8.472;2023-05-07T11:25:01;78.87;;;3.33;;
4895;SDS011;2463;49.948;8.472;2023-05-07T11:27:29;77.83;;;3.17;;
4895;SDS011;2463;49.948;8.472;2023-05-07T11:29:56;79.20;;;3.10;;
4895;SDS011;2463;49.948;8.472;2023-05-07T11:32:23;78.70;;;3.20;;
4895;SDS011;2463;49.948;8.472;2023-05-07T11:34:56;78.00;;;2.97;;
4895;SDS011;2463;49.948;8.472;2023-05-07T11:37:24;78.27;;;2.97;;
4895;SDS011;2463;49.948;8.472;2023-05-07T11:40:06;77.77;;;3.17;;
4895;SDS011;2463;49.948;8.472;2023-05-07T11:42:40;78.17;;;3.10;;
4895;SDS011;2463;49.948;8.472;2023-05-07T11:45:09;82.73;;;3.20;;
4895;SDS011;2463;49.948;8.472;2023-05-07T11:47:37;80.87;;;3.50;;
4895;SDS011;2463;49.948;8.472;2023-05-07T11:50:04;79.90;;;3.13;;
4895;SDS011;2463;49.948;8.472;2023-05-07T11:52:36;79.90;;;3.20;;
4895;SDS011;2463;49.948;8.472;2023-05-07T11:55:06;80.87;;;3.10;;
4895;SDS011;2463;49.948;8.472;2023-05-07T11:57:34;83.90;;;3.20;;
4895;SDS011;2463;49.948;8.472;2023-05-07T12:00:01;81.33;;;3.10;;
4895;SDS011;2463;49.948;8.472;2023-05-07T12:02:30;79.10;;;3.43;;
4895;SDS011;2463;49.948;8.472;2023-05-07T12:04:57;80.17;;;3.30;;
4895;SDS011;2463;49.948;8.472;2023-05-07T12:07:26;81.17;;;3.30;;
4895;SDS011;2463;49.948;8.472;2023-05-07T12:09:53;79.47;;;3.20;;
4895;SDS011;2463;49.948;8.472;2023-05-07T12:12:20;80.83;;;3.33;;
4895;SDS011;2463;49.948;8.472;2023-05-07T12:14:47;80.90;;;3.30;;
4895;SDS011;2463;49.948;8.472;2023-05-07T12:17:14;80.20;;;4.17;;
4895;SDS011;2463;49.948;8.472;2023-05-07T12:19:42;80.20;;;3.33;;
4895;SDS011;2463;49.948;8.472;2023-05-07T12:22:10;79.30;;;3.97;;
4895;SDS011;2463;49.948;8.472;2023-05-07T12:27:11;81.47;;;4.40;;
4895;SDS011;2463;49.948;8.472;2023-05-07T12:29:38;80.07;;;3.57;;
4895;SDS011;2463;49.948;8.472;2023-05-07T12:32:06;79.80;;;2.90;;
4895;SDS011;2463;49.948;8.472;2023-05-07T12:34:46;83.23;;;3.60;;
4895;SDS011;2463;49.948;8.472;2023-05-07T12:37:17;80.47;;;3.70;;
4895;SDS011;2463;49.948;8.472;2023-05-07T12:40:07;79.57;;;3.43;;
4895;SDS011;2463;49.948;8.472;2023-05-07T12:42:35;81.23;;;3.70;;
4895;SDS011;2463;49.948;8.472;2023-05-07T12:45:09;80.37;;;3.40;;
4895;SDS011;2463;49.948;8.472;2023-05-07T12:47:46;83.83;;;3.73;;
4895;SDS011;2463;49.948;8.472;2023-05-07T12:50:13;80.97;;;3.30;;
4895;SDS011;2463;49.948;8.472;2023-05-07T12:52:42;80.07;;;3.20;;
4895;SDS011;2463;49.948;8.472;2023-05-07T12:55:12;93.13;;;3.60;;
4895;SDS011;2463;49.948;8.472;2023-05-07T12:57:41;79.83;;;3.33;;
4895;SDS011;2463;49.948;8.472;2023-05-07T13:00:10;79.63;;;3.10;;
4895;SDS011;2463;49.948;8.472;2023-05-07T13:02:37;79.90;;;3.40;;
4895;SDS011;2463;49.948;8.472;2023-05-07T13:05:05;79.57;;;3.20;;
4895;SDS011;2463;49.948;8.472;2023-05-07T13:07:33;80.47;;;3.60;;
4895;SDS011;2463;49.948;8.472;2023-05-07T13:10:00;79.20;;;3.20;;
4895;SDS011;2463;49.948;8.472;2023-05-07T13:12:27;79.70;;;3.30;;
4895;SDS011;2463;49.948;8.472;2023-05-07T13:14:54;78.80;;;3.00;;
4895;SDS011;2463;49.948;8.472;2023-05-07T13:17:21;78.77;;;3.00;;
4895;SDS011;2463;49.948;8.472;2023-05-07T13:19:47;79.10;;;3.40;;
4895;SDS011;2463;49.948;8.472;2023-05-07T13:22:14;80.37;;;3.43;;
4895;SDS011;2463;49.948;8.472;2023-05-07T13:24:41;78.47;;;2.80;;
4895;SDS011;2463;49.948;8.472;2023-05-07T13:27:09;79.50;;;3.23;;
4895;SDS011;2463;49.948;8.472;2023-05-07T13:29:36;80.33;;;3.30;;
4895;SDS011;2463;49.948;8.472;2023-05-07T13:32:03;78.43;;;3.13;;
4895;SDS011;2463;49.948;8.472;2023-05-07T13:34:30;79.83;;;3.20;;
4895;SDS011;2463;49.948;8.472;2023-05-07T13:36:56;78.97;;;3.10;;
4895;SDS011;2463;49.948;8.472;2023-05-07T13:39:23;78.33;;;3.00;;
4895;SDS011;2463;49.948;8.472;2023-05-07T13:41:50;78.73;;;3.13;;
4895;SDS011;2463;49.948;8.472;2023-05-07T13:44:16;78.77;;;2.77;;
4895;SDS011;2463;49.948;8.472;2023-05-07T13:46:43;79.77;;;3.70;;
4895;SDS011;2463;49.948;8.472;2023-05-07T13:49:10;79.90;;;3.07;;
4895;SDS011;2463;49.948;8.472;2023-05-07T13:51:38;79.03;;;3.00;;
4895;SDS011;2463;49.948;8.472;2023-05-07T13:54:05;79.70;;;2.77;;
4895;SDS011;2463;49.948;8.472;2023-05-07T13:56:31;84.17;;;3.80;;
4895;SDS011;2463;49.948;8.472;2023-05-07T13:58:58;80.60;;;3.10;;
4895;SDS011;2463;49.948;8.472;2023-05-07T14:01:26;80.80;;;3.03;;
4895;SDS011;2463;49.948;8.472;2023-05-07T14:03:53;82.80;;;3.43;;
4895;SDS011;2463;49.948;8.472;2023-05-07T14:06:20;82.83;;;3.47;;
4895;SDS011;2463;49.948;8.472;2023-05-07T14:08:47;83.17;;;3.50;;
4895;SDS011;2463;49.948;8.472;2023-05-07T14:11:14;80.20;;;3.30;;
4895;SDS011;2463;49.948;8.472;2023-05-07T14:13:41;82.27;;;3.53;;
4895;SDS011;2463;49.948;8.472;2023-05-07T14:16:07;78.70;;;2.90;;
4895;SDS011;2463;49.948;8.472;2023-05-07T14:18:34;79.60;;;3.33;;
4895;SDS011;2463;49.948;8.472;2023-05-07T14:21:03;80.07;;;3.27;;
4895;SDS011;2463;49.948;8.472;2023-05-07T14:23:32;79.90;;;3.57;;
4895;SDS011;2463;49.948;8.472;2023-05-07T14:25:59;80.80;;;3.40;;
4895;SDS011;2463;49.948;8.472;2023-05-07T14:28:25;82.73;;;3.70;;
4895;SDS011;2463;49.948;8.472;2023-05-07T14:30:52;81.57;;;3.80;;
4895;SDS011;2463;49.948;8.472;2023-05-07T14:33:19;83.80;;;3.90;;
4895;SDS011;2463;49.948;8.472;2023-05-07T14:35:45;82.73;;;3.70;;
4895;SDS011;2463;49.948;8.472;2023-05-07T14:38:15;81.83;;;3.17;;
4895;SDS011;2463;49.948;8.472;2023-05-07T14:40:41;80.90;;;3.80;;
4895;SDS011;2463;49.948;8.472;2023-05-07T14:43:08;81.07;;;3.90;;
4895;SDS011;2463;49.948;8.472;2023-05-07T14:45:35;82.10;;;3.77;;
4895;SDS011;2463;49.948;8.472;2023-05-07T14:48:02;81.37;;;3.70;;
4895;SDS011;2463;49.948;8.472;2023-05-07T14:50:29;82.20;;;3.20;;
4895;SDS011;2463;49.948;8.472;2023-05-07T14:52:55;83.20;;;4.27;;
4895;SDS011;2463;49.948;8.472;2023-05-07T14:55:22;80.93;;;3.33;;
4895;SDS011;2463;49.948;8.472;2023-05-07T14:57:49;81.90;;;3.73;;
4895;SDS011;2463;49.948;8.472;2023-05-07T15:00:16;80.57;;;3.40;;
4895;SDS011;2463;49.948;8.472;2023-05-07T15:02:42;81.87;;;3.70;;
4895;SDS011;2463;49.948;8.472;2023-05-07T15:05:09;83.40;;;3.77;;
4895;SDS011;2463;49.948;8.472;2023-05-07T15:07:36;82.90;;;3.70;;
4895;SDS011;2463;49.948;8.472;2023-05-07T15:10:03;81.50;;;3.50;;
4895;SDS011;2463;49.948;8.472;2023-05-07T15:12:30;94.90;;;4.50;;
4895;SDS011;2463;49.948;8.472;2023-05-07T15:14:57;82.90;;;3.70;;
4895;SDS011;2463;49.948;8.472;2023-05-07T15:17:23;87.37;;;4.30;;
4895;SDS011;2463;49.948;8.472;2023-05-07T15:19:50;82.30;;;3.63;;
4895;SDS011;2463;49.948;8.472;2023-05-07T15:22:19;84.10;;;3.63;;
4895;SDS011;2463;49.948;8.472;2023-05-07T15:24:47;83.63;;;3.73;;
4895;SDS011;2463;49.948;8.472;2023-05-07T15:27:14;82.97;;;3.70;;
4895;SDS011;2463;49.948;8.472;2023-05-07T15:29:41;82.50;;;3.97;;
4895;SDS011;2463;49.948;8.472;2023-05-07T15:32:09;82.77;;;4.07;;
4895;SDS011;2463;49.948;8.472;2023-05-07T15:34:36;81.67;;;3.97;;